Etusivu
METAR-TAF:

METAR-TAF

Lentoasemat :

Altus, Oklahoma, Yhdysvallat

Leveyspiiri: 34-41-55N, Pituuspiiri: 099-20-17W, korkeus merenpinnasta: 437 m

Tämänhetkinen sää

Tämä raportti tehtiin 21 minuuttia sitten, kello 03.55 UTC
tyyntä
Lämpötila 8°C
Kosteus 49%
Ilmanpaine 1026 hPa
Näkyvyys: 16.1 km
selkeää

METAR: KAXS 290355Z AUTO 00000KT 10SM CLR 08/M02 A3030 RMK AO2 T00761023

Aika: 22:16 (04:16 UTC)


TAF: puuttuu

Säähavainnot ja -ennusteet yli 4000 lentoasemalta (METAR- ja TAF-raportit).

Käytössä olevat sääasemat on merkitty karttaan keltaisilla ja punaisilla pisteillä.

Aseta hiiri pisteen päälle nähdäksesi sääaseman nimen.

Klikkaa sitten nähdäksesi säähavainnot ja -ennusteet.

Kartan vaihtaminen: klikkaa mustalla rastilla varustettuja vihreitä pisteitä, niin voit zoomata sisään; viivalla varustettua vihreää pistettä, niin voit zoomata ulos tai vihreitä nuolia, niin pääset viereisille kartoille.


METAR-TAF: